sensor_id;sensor_type;location;lat;lon;timestamp;P1;durP1;ratioP1;P2;durP2;ratioP2
57635;SDS011;43465;50.728;4.160;2023-05-09T00:00:36;11.32;;;9.82;;
57635;SDS011;43465;50.728;4.160;2023-05-09T00:03:02;15.20;;;10.43;;
57635;SDS011;43465;50.728;4.160;2023-05-09T00:05:30;11.95;;;9.32;;
57635;SDS011;43465;50.728;4.160;2023-05-09T00:07:55;11.43;;;9.75;;
57635;SDS011;43465;50.728;4.160;2023-05-09T00:10:21;13.30;;;9.77;;
57635;SDS011;43465;50.728;4.160;2023-05-09T00:12:47;14.77;;;10.55;;
57635;SDS011;43465;50.728;4.160;2023-05-09T00:15:13;11.25;;;10.07;;
57635;SDS011;43465;50.728;4.160;2023-05-09T00:17:39;11.45;;;10.15;;
57635;SDS011;43465;50.728;4.160;2023-05-09T00:20:08;11.18;;;9.98;;
57635;SDS011;43465;50.728;4.160;2023-05-09T00:22:36;12.93;;;10.80;;
57635;SDS011;43465;50.728;4.160;2023-05-09T00:25:03;11.98;;;10.27;;
57635;SDS011;43465;50.728;4.160;2023-05-09T00:27:30;13.50;;;10.50;;
57635;SDS011;43465;50.728;4.160;2023-05-09T00:29:56;16.08;;;10.30;;
57635;SDS011;43465;50.728;4.160;2023-05-09T00:32:21;12.60;;;10.20;;
57635;SDS011;43465;50.728;4.160;2023-05-09T00:34:49;11.30;;;10.10;;
57635;SDS011;43465;50.728;4.160;2023-05-09T00:37:15;11.90;;;9.85;;
57635;SDS011;43465;50.728;4.160;2023-05-09T00:39:43;13.45;;;9.48;;
57635;SDS011;43465;50.728;4.160;2023-05-09T00:42:12;11.80;;;10.00;;
57635;SDS011;43465;50.728;4.160;2023-05-09T00:44:38;11.05;;;9.93;;
57635;SDS011;43465;50.728;4.160;2023-05-09T00:47:04;13.52;;;9.70;;
57635;SDS011;43465;50.728;4.160;2023-05-09T00:49:31;13.38;;;9.98;;
57635;SDS011;43465;50.728;4.160;2023-05-09T00:51:57;11.35;;;10.13;;
57635;SDS011;43465;50.728;4.160;2023-05-09T00:54:23;11.77;;;10.10;;
57635;SDS011;43465;50.728;4.160;2023-05-09T00:56:49;10.63;;;9.43;;
57635;SDS011;43465;50.728;4.160;2023-05-09T00:59:15;12.10;;;9.75;;
57635;SDS011;43465;50.728;4.160;2023-05-09T01:01:42;12.18;;;9.63;;
57635;SDS011;43465;50.728;4.160;2023-05-09T01:04:07;12.18;;;9.75;;
57635;SDS011;43465;50.728;4.160;2023-05-09T01:06:40;11.27;;;9.85;;
57635;SDS011;43465;50.728;4.160;2023-05-09T01:12:03;10.88;;;9.68;;
57635;SDS011;43465;50.728;4.160;2023-05-09T01:17:35;11.98;;;9.98;;
57635;SDS011;43465;50.728;4.160;2023-05-09T01:23:17;10.98;;;9.77;;
57635;SDS011;43465;50.728;4.160;2023-05-09T01:26:34;11.60;;;9.40;;
57635;SDS011;43465;50.728;4.160;2023-05-09T01:31:50;11.45;;;9.43;;
57635;SDS011;43465;50.728;4.160;2023-05-09T01:34:19;15.88;;;9.32;;
57635;SDS011;43465;50.728;4.160;2023-05-09T01:36:50;11.85;;;8.80;;
57635;SDS011;43465;50.728;4.160;2023-05-09T01:39:19;10.52;;;9.45;;
57635;SDS011;43465;50.728;4.160;2023-05-09T01:41:48;12.75;;;9.55;;
57635;SDS011;43465;50.728;4.160;2023-05-09T01:44:17;10.77;;;9.02;;
57635;SDS011;43465;50.728;4.160;2023-05-09T01:46:45;10.52;;;9.32;;
57635;SDS011;43465;50.728;4.160;2023-05-09T01:49:11;11.30;;;9.40;;
57635;SDS011;43465;50.728;4.160;2023-05-09T01:51:37;13.63;;;9.82;;
57635;SDS011;43465;50.728;4.160;2023-05-09T01:54:05;11.25;;;9.48;;
57635;SDS011;43465;50.728;4.160;2023-05-09T01:56:31;10.85;;;9.43;;
57635;SDS011;43465;50.728;4.160;2023-05-09T01:59:00;11.95;;;10.00;;
57635;SDS011;43465;50.728;4.160;2023-05-09T02:01:27;10.70;;;9.60;;
57635;SDS011;43465;50.728;4.160;2023-05-09T02:03:54;13.30;;;9.63;;
57635;SDS011;43465;50.728;4.160;2023-05-09T02:06:22;13.13;;;10.30;;
57635;SDS011;43465;50.728;4.160;2023-05-09T02:08:48;11.13;;;9.93;;
57635;SDS011;43465;50.728;4.160;2023-05-09T02:11:15;13.48;;;10.25;;
57635;SDS011;43465;50.728;4.160;2023-05-09T02:13:40;11.82;;;9.82;;
57635;SDS011;43465;50.728;4.160;2023-05-09T02:16:06;12.60;;;9.82;;
57635;SDS011;43465;50.728;4.160;2023-05-09T02:18:33;14.05;;;10.27;;
57635;SDS011;43465;50.728;4.160;2023-05-09T02:20:59;13.00;;;10.43;;
57635;SDS011;43465;50.728;4.160;2023-05-09T02:23:25;14.43;;;10.18;;
57635;SDS011;43465;50.728;4.160;2023-05-09T02:25:51;12.35;;;10.27;;
57635;SDS011;43465;50.728;4.160;2023-05-09T02:28:18;12.57;;;10.35;;
57635;SDS011;43465;50.728;4.160;2023-05-09T02:30:46;11.27;;;9.88;;
57635;SDS011;43465;50.728;4.160;2023-05-09T02:33:14;12.88;;;10.30;;
57635;SDS011;43465;50.728;4.160;2023-05-09T02:35:42;14.30;;;9.63;;
57635;SDS011;43465;50.728;4.160;2023-05-09T02:38:10;11.57;;;9.45;;
57635;SDS011;43465;50.728;4.160;2023-05-09T02:40:36;10.43;;;9.27;;
57635;SDS011;43465;50.728;4.160;2023-05-09T02:43:03;10.85;;;9.77;;
57635;SDS011;43465;50.728;4.160;2023-05-09T02:45:29;13.27;;;9.40;;
57635;SDS011;43465;50.728;4.160;2023-05-09T02:47:56;11.77;;;9.07;;
57635;SDS011;43465;50.728;4.160;2023-05-09T02:50:21;10.95;;;9.70;;
57635;SDS011;43465;50.728;4.160;2023-05-09T02:52:47;12.50;;;9.75;;
57635;SDS011;43465;50.728;4.160;2023-05-09T02:55:13;13.80;;;9.88;;
57635;SDS011;43465;50.728;4.160;2023-05-09T02:57:38;12.13;;;9.85;;
57635;SDS011;43465;50.728;4.160;2023-05-09T03:00:04;11.02;;;8.75;;
57635;SDS011;43465;50.728;4.160;2023-05-09T03:02:34;11.52;;;10.25;;
57635;SDS011;43465;50.728;4.160;2023-05-09T03:05:01;12.52;;;10.10;;
57635;SDS011;43465;50.728;4.160;2023-05-09T03:07:27;13.73;;;10.77;;
57635;SDS011;43465;50.728;4.160;2023-05-09T03:09:53;13.38;;;10.23;;
57635;SDS011;43465;50.728;4.160;2023-05-09T03:12:19;10.90;;;9.63;;
57635;SDS011;43465;50.728;4.160;2023-05-09T03:14:45;11.98;;;9.65;;
57635;SDS011;43465;50.728;4.160;2023-05-09T03:17:11;12.85;;;10.52;;
57635;SDS011;43465;50.728;4.160;2023-05-09T03:19:36;12.32;;;9.55;;
57635;SDS011;43465;50.728;4.160;2023-05-09T03:22:02;13.05;;;10.07;;
57635;SDS011;43465;50.728;4.160;2023-05-09T03:24:28;11.45;;;10.25;;
57635;SDS011;43465;50.728;4.160;2023-05-09T03:26:53;17.58;;;11.75;;
57635;SDS011;43465;50.728;4.160;2023-05-09T03:29:19;13.73;;;10.98;;
57635;SDS011;43465;50.728;4.160;2023-05-09T03:31:45;14.75;;;11.30;;
57635;SDS011;43465;50.728;4.160;2023-05-09T03:34:10;12.95;;;11.10;;
57635;SDS011;43465;50.728;4.160;2023-05-09T03:36:40;15.02;;;10.90;;
57635;SDS011;43465;50.728;4.160;2023-05-09T03:39:07;11.75;;;10.55;;
57635;SDS011;43465;50.728;4.160;2023-05-09T03:41:34;12.55;;;10.38;;
57635;SDS011;43465;50.728;4.160;2023-05-09T03:44:00;13.13;;;11.60;;
57635;SDS011;43465;50.728;4.160;2023-05-09T03:46:26;13.73;;;10.93;;
57635;SDS011;43465;50.728;4.160;2023-05-09T03:48:52;15.88;;;11.25;;
57635;SDS011;43465;50.728;4.160;2023-05-09T03:51:17;14.45;;;10.52;;
57635;SDS011;43465;50.728;4.160;2023-05-09T03:53:45;13.30;;;10.43;;
57635;SDS011;43465;50.728;4.160;2023-05-09T03:56:11;13.60;;;10.93;;
57635;SDS011;43465;50.728;4.160;2023-05-09T03:58:36;14.05;;;10.48;;
57635;SDS011;43465;50.728;4.160;2023-05-09T04:01:02;14.18;;;11.00;;
57635;SDS011;43465;50.728;4.160;2023-05-09T04:03:28;11.60;;;10.40;;
57635;SDS011;43465;50.728;4.160;2023-05-09T04:05:54;12.18;;;10.02;;
57635;SDS011;43465;50.728;4.160;2023-05-09T04:08:20;14.35;;;11.13;;
57635;SDS011;43465;50.728;4.160;2023-05-09T04:10:45;14.25;;;11.07;;
57635;SDS011;43465;50.728;4.160;2023-05-09T04:13:11;12.85;;;11.18;;
57635;SDS011;43465;50.728;4.160;2023-05-09T04:15:37;12.10;;;10.88;;
57635;SDS011;43465;50.728;4.160;2023-05-09T04:18:03;15.82;;;11.18;;
57635;SDS011;43465;50.728;4.160;2023-05-09T04:20:28;14.90;;;11.15;;
57635;SDS011;43465;50.728;4.160;2023-05-09T04:22:55;16.10;;;11.07;;
57635;SDS011;43465;50.728;4.160;2023-05-09T04:25:21;14.00;;;10.63;;
57635;SDS011;43465;50.728;4.160;2023-05-09T04:27:47;14.52;;;11.18;;
57635;SDS011;43465;50.728;4.160;2023-05-09T04:30:13;15.40;;;11.20;;
57635;SDS011;43465;50.728;4.160;2023-05-09T04:32:39;13.35;;;10.73;;
57635;SDS011;43465;50.728;4.160;2023-05-09T04:35:09;13.70;;;11.70;;
57635;SDS011;43465;50.728;4.160;2023-05-09T04:37:35;15.00;;;11.77;;
57635;SDS011;43465;50.728;4.160;2023-05-09T04:40:01;15.32;;;12.50;;
57635;SDS011;43465;50.728;4.160;2023-05-09T04:42:28;14.30;;;12.60;;
57635;SDS011;43465;50.728;4.160;2023-05-09T04:44:53;19.20;;;13.27;;
57635;SDS011;43465;50.728;4.160;2023-05-09T04:47:19;15.60;;;12.80;;
57635;SDS011;43465;50.728;4.160;2023-05-09T04:49:45;15.18;;;13.05;;
57635;SDS011;43465;50.728;4.160;2023-05-09T04:52:11;16.17;;;12.38;;
57635;SDS011;43465;50.728;4.160;2023-05-09T04:54:36;16.08;;;11.73;;
57635;SDS011;43465;50.728;4.160;2023-05-09T04:57:02;14.70;;;11.38;;
57635;SDS011;43465;50.728;4.160;2023-05-09T04:59:30;13.90;;;12.32;;
57635;SDS011;43465;50.728;4.160;2023-05-09T05:01:56;14.23;;;11.32;;
57635;SDS011;43465;50.728;4.160;2023-05-09T05:04:22;13.07;;;11.00;;
57635;SDS011;43465;50.728;4.160;2023-05-09T05:06:48;12.98;;;10.98;;
57635;SDS011;43465;50.728;4.160;2023-05-09T05:09:13;12.77;;;11.45;;
57635;SDS011;43465;50.728;4.160;2023-05-09T05:11:39;12.07;;;10.73;;
57635;SDS011;43465;50.728;4.160;2023-05-09T05:14:05;15.77;;;11.85;;
57635;SDS011;43465;50.728;4.160;2023-05-09T05:16:30;12.45;;;11.10;;
57635;SDS011;43465;50.728;4.160;2023-05-09T05:18:56;12.50;;;11.20;;
57635;SDS011;43465;50.728;4.160;2023-05-09T05:21:21;12.27;;;11.05;;
57635;SDS011;43465;50.728;4.160;2023-05-09T05:23:47;12.25;;;11.05;;
57635;SDS011;43465;50.728;4.160;2023-05-09T05:26:13;14.48;;;11.85;;
57635;SDS011;43465;50.728;4.160;2023-05-09T05:28:38;14.27;;;11.98;;
57635;SDS011;43465;50.728;4.160;2023-05-09T05:31:04;13.43;;;11.98;;
57635;SDS011;43465;50.728;4.160;2023-05-09T05:33:30;12.60;;;11.32;;
57635;SDS011;43465;50.728;4.160;2023-05-09T05:35:56;12.50;;;11.20;;
57635;SDS011;43465;50.728;4.160;2023-05-09T05:38:21;12.32;;;11.10;;
57635;SDS011;43465;50.728;4.160;2023-05-09T05:40:47;16.13;;;12.45;;
57635;SDS011;43465;50.728;4.160;2023-05-09T05:43:13;12.60;;;11.13;;
57635;SDS011;43465;50.728;4.160;2023-05-09T05:45:38;12.25;;;11.05;;
57635;SDS011;43465;50.728;4.160;2023-05-09T05:48:04;13.73;;;11.68;;
57635;SDS011;43465;50.728;4.160;2023-05-09T05:50:30;12.52;;;11.02;;
57635;SDS011;43465;50.728;4.160;2023-05-09T05:52:55;12.32;;;10.98;;
57635;SDS011;43465;50.728;4.160;2023-05-09T05:55:21;14.45;;;11.40;;
57635;SDS011;43465;50.728;4.160;2023-05-09T05:57:47;12.30;;;11.05;;
57635;SDS011;43465;50.728;4.160;2023-05-09T06:00:12;11.88;;;10.70;;
57635;SDS011;43465;50.728;4.160;2023-05-09T06:02:42;11.82;;;9.48;;
57635;SDS011;43465;50.728;4.160;2023-05-09T06:05:08;10.70;;;9.70;;
57635;SDS011;43465;50.728;4.160;2023-05-09T06:07:35;10.82;;;9.73;;
57635;SDS011;43465;50.728;4.160;2023-05-09T06:10:01;11.20;;;9.80;;
57635;SDS011;43465;50.728;4.160;2023-05-09T06:12:27;12.63;;;9.77;;
57635;SDS011;43465;50.728;4.160;2023-05-09T06:14:52;10.20;;;8.98;;
57635;SDS011;43465;50.728;4.160;2023-05-09T06:17:18;9.60;;;8.70;;
57635;SDS011;43465;50.728;4.160;2023-05-09T06:19:44;14.52;;;9.68;;
57635;SDS011;43465;50.728;4.160;2023-05-09T06:22:09;13.05;;;9.27;;
57635;SDS011;43465;50.728;4.160;2023-05-09T06:24:35;10.10;;;8.43;;
57635;SDS011;43465;50.728;4.160;2023-05-09T06:27:01;12.50;;;8.57;;
57635;SDS011;43465;50.728;4.160;2023-05-09T06:29:27;9.38;;;8.45;;
57635;SDS011;43465;50.728;4.160;2023-05-09T06:31:53;10.32;;;8.35;;
57635;SDS011;43465;50.728;4.160;2023-05-09T06:34:18;10.07;;;8.15;;
57635;SDS011;43465;50.728;4.160;2023-05-09T06:36:44;9.70;;;8.27;;
57635;SDS011;43465;50.728;4.160;2023-05-09T06:39:09;12.05;;;8.23;;
57635;SDS011;43465;50.728;4.160;2023-05-09T06:41:35;13.18;;;7.72;;
57635;SDS011;43465;50.728;4.160;2023-05-09T06:44:01;8.48;;;7.43;;
57635;SDS011;43465;50.728;4.160;2023-05-09T06:46:27;8.00;;;7.28;;
57635;SDS011;43465;50.728;4.160;2023-05-09T06:48:52;14.10;;;7.85;;
57635;SDS011;43465;50.728;4.160;2023-05-09T06:51:18;13.20;;;7.90;;
57635;SDS011;43465;50.728;4.160;2023-05-09T06:53:44;11.45;;;8.18;;
57635;SDS011;43465;50.728;4.160;2023-05-09T06:56:10;10.73;;;8.00;;
57635;SDS011;43465;50.728;4.160;2023-05-09T06:58:36;9.23;;;7.60;;
57635;SDS011;43465;50.728;4.160;2023-05-09T07:01:01;11.52;;;7.95;;
57635;SDS011;43465;50.728;4.160;2023-05-09T07:03:28;11.07;;;8.13;;
57635;SDS011;43465;50.728;4.160;2023-05-09T07:05:54;11.18;;;7.72;;
57635;SDS011;43465;50.728;4.160;2023-05-09T07:08:22;9.65;;;7.85;;
57635;SDS011;43465;50.728;4.160;2023-05-09T07:10:49;10.45;;;8.05;;
57635;SDS011;43465;50.728;4.160;2023-05-09T07:13:14;9.70;;;8.68;;
57635;SDS011;43465;50.728;4.160;2023-05-09T07:15:40;9.40;;;7.75;;
57635;SDS011;43465;50.728;4.160;2023-05-09T07:18:06;10.43;;;8.27;;
57635;SDS011;43465;50.728;4.160;2023-05-09T07:20:32;12.68;;;8.40;;
57635;SDS011;43465;50.728;4.160;2023-05-09T07:22:57;13.30;;;8.23;;
57635;SDS011;43465;50.728;4.160;2023-05-09T07:25:23;11.55;;;8.93;;
57635;SDS011;43465;50.728;4.160;2023-05-09T07:27:49;9.25;;;8.23;;
57635;SDS011;43465;50.728;4.160;2023-05-09T07:30:14;12.40;;;8.38;;
57635;SDS011;43465;50.728;4.160;2023-05-09T07:32:40;10.98;;;8.60;;
57635;SDS011;43465;50.728;4.160;2023-05-09T07:35:06;11.27;;;8.57;;
57635;SDS011;43465;50.728;4.160;2023-05-09T07:37:31;14.50;;;8.68;;
57635;SDS011;43465;50.728;4.160;2023-05-09T07:39:57;12.65;;;8.45;;
57635;SDS011;43465;50.728;4.160;2023-05-09T07:42:23;10.98;;;8.35;;
57635;SDS011;43465;50.728;4.160;2023-05-09T07:44:49;10.85;;;9.25;;
57635;SDS011;43465;50.728;4.160;2023-05-09T07:47:14;11.07;;;8.38;;
57635;SDS011;43465;50.728;4.160;2023-05-09T07:49:40;9.82;;;8.75;;
57635;SDS011;43465;50.728;4.160;2023-05-09T07:52:07;10.02;;;9.02;;
57635;SDS011;43465;50.728;4.160;2023-05-09T07:54:33;10.57;;;8.30;;
57635;SDS011;43465;50.728;4.160;2023-05-09T07:56:58;9.15;;;8.20;;
57635;SDS011;43465;50.728;4.160;2023-05-09T07:59:24;10.75;;;8.55;;
57635;SDS011;43465;50.728;4.160;2023-05-09T08:01:50;9.45;;;8.32;;
57635;SDS011;43465;50.728;4.160;2023-05-09T08:04:16;11.75;;;8.75;;
57635;SDS011;43465;50.728;4.160;2023-05-09T08:06:41;10.18;;;9.13;;
57635;SDS011;43465;50.728;4.160;2023-05-09T08:09:07;11.18;;;8.77;;
57635;SDS011;43465;50.728;4.160;2023-05-09T08:11:33;10.23;;;8.63;;
57635;SDS011;43465;50.728;4.160;2023-05-09T08:13:59;10.48;;;8.88;;
57635;SDS011;43465;50.728;4.160;2023-05-09T08:16:25;11.35;;;9.32;;
57635;SDS011;43465;50.728;4.160;2023-05-09T08:18:51;11.10;;;8.70;;
57635;SDS011;43465;50.728;4.160;2023-05-09T08:21:18;12.05;;;9.32;;
57635;SDS011;43465;50.728;4.160;2023-05-09T08:23:45;11.77;;;9.55;;
57635;SDS011;43465;50.728;4.160;2023-05-09T08:26:10;12.27;;;9.32;;
57635;SDS011;43465;50.728;4.160;2023-05-09T08:28:36;9.98;;;8.98;;
57635;SDS011;43465;50.728;4.160;2023-05-09T08:31:02;12.70;;;9.40;;
57635;SDS011;43465;50.728;4.160;2023-05-09T08:33:27;12.82;;;9.30;;
57635;SDS011;43465;50.728;4.160;2023-05-09T08:35:53;10.30;;;8.90;;
57635;SDS011;43465;50.728;4.160;2023-05-09T08:38:20;10.30;;;8.98;;
57635;SDS011;43465;50.728;4.160;2023-05-09T08:40:46;9.60;;;8.60;;
57635;SDS011;43465;50.728;4.160;2023-05-09T08:43:12;9.68;;;8.48;;
57635;SDS011;43465;50.728;4.160;2023-05-09T08:45:45;9.68;;;8.63;;
57635;SDS011;43465;50.728;4.160;2023-05-09T08:48:14;11.52;;;8.48;;
57635;SDS011;43465;50.728;4.160;2023-05-09T08:50:41;8.80;;;7.97;;
57635;SDS011;43465;50.728;4.160;2023-05-09T08:53:07;9.65;;;7.72;;
57635;SDS011;43465;50.728;4.160;2023-05-09T08:55:33;8.27;;;7.47;;
57635;SDS011;43465;50.728;4.160;2023-05-09T08:57:59;8.23;;;7.43;;
57635;SDS011;43465;50.728;4.160;2023-05-09T09:00:25;8.60;;;7.70;;
57635;SDS011;43465;50.728;4.160;2023-05-09T09:02:51;9.07;;;7.60;;
57635;SDS011;43465;50.728;4.160;2023-05-09T09:05:19;11.30;;;8.15;;
57635;SDS011;43465;50.728;4.160;2023-05-09T09:07:47;11.07;;;8.55;;
57635;SDS011;43465;50.728;4.160;2023-05-09T09:10:13;10.05;;;8.20;;
57635;SDS011;43465;50.728;4.160;2023-05-09T09:12:40;8.95;;;8.07;;
57635;SDS011;43465;50.728;4.160;2023-05-09T09:15:08;10.13;;;8.43;;
57635;SDS011;43465;50.728;4.160;2023-05-09T09:17:37;10.00;;;9.00;;
57635;SDS011;43465;50.728;4.160;2023-05-09T09:20:07;10.40;;;8.98;;
57635;SDS011;43465;50.728;4.160;2023-05-09T09:22:35;10.63;;;8.32;;
57635;SDS011;43465;50.728;4.160;2023-05-09T09:25:06;10.90;;;8.10;;
57635;SDS011;43465;50.728;4.160;2023-05-09T09:27:32;8.27;;;7.47;;
57635;SDS011;43465;50.728;4.160;2023-05-09T09:30:08;9.00;;;7.95;;
57635;SDS011;43465;50.728;4.160;2023-05-09T09:32:35;9.63;;;8.50;;
57635;SDS011;43465;50.728;4.160;2023-05-09T09:35:08;9.88;;;8.35;;
57635;SDS011;43465;50.728;4.160;2023-05-09T09:37:35;12.43;;;8.88;;
57635;SDS011;43465;50.728;4.160;2023-05-09T09:40:04;11.10;;;8.05;;
57635;SDS011;43465;50.728;4.160;2023-05-09T09:42:40;6.68;;;4.90;;
57635;SDS011;43465;50.728;4.160;2023-05-09T09:45:14;6.63;;;5.90;;
57635;SDS011;43465;50.728;4.160;2023-05-09T09:47:44;5.45;;;4.88;;
57635;SDS011;43465;50.728;4.160;2023-05-09T09:50:18;9.15;;;6.95;;
57635;SDS011;43465;50.728;4.160;2023-05-09T09:52:50;7.60;;;6.80;;
57635;SDS011;43465;50.728;4.160;2023-05-09T09:55:17;8.98;;;6.72;;
57635;SDS011;43465;50.728;4.160;2023-05-09T09:57:43;7.00;;;6.30;;
57635;SDS011;43465;50.728;4.160;2023-05-09T10:00:10;6.80;;;6.13;;
57635;SDS011;43465;50.728;4.160;2023-05-09T10:02:50;10.80;;;8.32;;
57635;SDS011;43465;50.728;4.160;2023-05-09T10:05:22;11.18;;;7.60;;
57635;SDS011;43465;50.728;4.160;2023-05-09T10:07:56;8.60;;;7.38;;
57635;SDS011;43465;50.728;4.160;2023-05-09T10:10:30;8.27;;;6.70;;
57635;SDS011;43465;50.728;4.160;2023-05-09T10:13:06;9.82;;;7.75;;
57635;SDS011;43465;50.728;4.160;2023-05-09T10:15:36;8.13;;;7.32;;
57635;SDS011;43465;50.728;4.160;2023-05-09T10:18:02;7.75;;;6.82;;
57635;SDS011;43465;50.728;4.160;2023-05-09T10:20:30;7.97;;;6.90;;
57635;SDS011;43465;50.728;4.160;2023-05-09T10:22:56;9.50;;;7.28;;
57635;SDS011;43465;50.728;4.160;2023-05-09T10:25:46;9.68;;;7.13;;
57635;SDS011;43465;50.728;4.160;2023-05-09T10:28:30;10.70;;;7.63;;
57635;SDS011;43465;50.728;4.160;2023-05-09T10:30:58;8.45;;;7.50;;
57635;SDS011;43465;50.728;4.160;2023-05-09T10:33:48;14.25;;;8.40;;
57635;SDS011;43465;50.728;4.160;2023-05-09T10:36:18;11.48;;;9.70;;
57635;SDS011;43465;50.728;4.160;2023-05-09T10:38:48;11.85;;;10.57;;
57635;SDS011;43465;50.728;4.160;2023-05-09T10:41:17;11.85;;;10.32;;
57635;SDS011;43465;50.728;4.160;2023-05-09T10:43:46;9.93;;;8.30;;
57635;SDS011;43465;50.728;4.160;2023-05-09T10:46:11;12.77;;;10.45;;
57635;SDS011;43465;50.728;4.160;2023-05-09T10:48:38;12.63;;;11.07;;
57635;SDS011;43465;50.728;4.160;2023-05-09T10:51:05;7.88;;;6.03;;
57635;SDS011;43465;50.728;4.160;2023-05-09T10:54:05;6.90;;;5.07;;
57635;SDS011;43465;50.728;4.160;2023-05-09T10:56:25;7.50;;;5.95;;
57635;SDS011;43465;50.728;4.160;2023-05-09T10:58:52;5.13;;;4.35;;
57635;SDS011;43465;50.728;4.160;2023-05-09T11:01:34;5.25;;;4.72;;
57635;SDS011;43465;50.728;4.160;2023-05-09T11:04:09;4.82;;;4.30;;
57635;SDS011;43465;50.728;4.160;2023-05-09T11:14:45;6.28;;;5.15;;
57635;SDS011;43465;50.728;4.160;2023-05-09T11:22:17;7.10;;;5.30;;
57635;SDS011;43465;50.728;4.160;2023-05-09T11:24:47;5.35;;;4.85;;
57635;SDS011;43465;50.728;4.160;2023-05-09T11:29:52;8.05;;;6.80;;
57635;SDS011;43465;50.728;4.160;2023-05-09T11:32:20;7.63;;;6.43;;
57635;SDS011;43465;50.728;4.160;2023-05-09T11:34:47;8.10;;;6.93;;
57635;SDS011;43465;50.728;4.160;2023-05-09T11:37:16;7.43;;;6.30;;
57635;SDS011;43465;50.728;4.160;2023-05-09T11:40:01;8.98;;;5.63;;
57635;SDS011;43465;50.728;4.160;2023-05-09T11:42:29;8.65;;;6.90;;
57635;SDS011;43465;50.728;4.160;2023-05-09T11:44:56;11.80;;;7.43;;
57635;SDS011;43465;50.728;4.160;2023-05-09T11:47:22;11.13;;;7.22;;
57635;SDS011;43465;50.728;4.160;2023-05-09T11:49:49;8.63;;;6.53;;
57635;SDS011;43465;50.728;4.160;2023-05-09T11:52:15;7.13;;;5.85;;
57635;SDS011;43465;50.728;4.160;2023-05-09T11:54:45;5.07;;;4.30;;
57635;SDS011;43465;50.728;4.160;2023-05-09T11:57:11;4.60;;;4.20;;
57635;SDS011;43465;50.728;4.160;2023-05-09T11:59:41;6.50;;;4.22;;
57635;SDS011;43465;50.728;4.160;2023-05-09T12:02:08;4.10;;;3.80;;
57635;SDS011;43465;50.728;4.160;2023-05-09T12:04:34;7.13;;;3.65;;
57635;SDS011;43465;50.728;4.160;2023-05-09T12:07:00;5.15;;;3.08;;
57635;SDS011;43465;50.728;4.160;2023-05-09T12:09:34;4.05;;;2.65;;
57635;SDS011;43465;50.728;4.160;2023-05-09T12:12:12;3.75;;;3.33;;
57635;SDS011;43465;50.728;4.160;2023-05-09T12:14:38;5.35;;;3.08;;
57635;SDS011;43465;50.728;4.160;2023-05-09T12:17:06;4.93;;;3.28;;
57635;SDS011;43465;50.728;4.160;2023-05-09T12:19:32;7.78;;;4.35;;
57635;SDS011;43465;50.728;4.160;2023-05-09T12:21:58;7.95;;;4.57;;
57635;SDS011;43465;50.728;4.160;2023-05-09T12:24:29;7.63;;;4.68;;
57635;SDS011;43465;50.728;4.160;2023-05-09T12:26:55;7.65;;;5.70;;
57635;SDS011;43465;50.728;4.160;2023-05-09T12:29:22;9.52;;;6.13;;
57635;SDS011;43465;50.728;4.160;2023-05-09T12:31:49;7.95;;;6.53;;
57635;SDS011;43465;50.728;4.160;2023-05-09T12:34:16;13.23;;;8.35;;
57635;SDS011;43465;50.728;4.160;2023-05-09T12:36:43;12.65;;;8.40;;
57635;SDS011;43465;50.728;4.160;2023-05-09T12:39:15;14.45;;;8.90;;
57635;SDS011;43465;50.728;4.160;2023-05-09T12:41:45;11.23;;;7.93;;
57635;SDS011;43465;50.728;4.160;2023-05-09T12:44:18;12.60;;;7.85;;
57635;SDS011;43465;50.728;4.160;2023-05-09T12:46:54;9.52;;;6.18;;
57635;SDS011;43465;50.728;4.160;2023-05-09T12:49:21;7.90;;;5.95;;
57635;SDS011;43465;50.728;4.160;2023-05-09T12:51:48;9.18;;;7.25;;
57635;SDS011;43465;50.728;4.160;2023-05-09T12:54:22;8.27;;;6.60;;
57635;SDS011;43465;50.728;4.160;2023-05-09T12:56:52;8.80;;;6.65;;
57635;SDS011;43465;50.728;4.160;2023-05-09T12:59:21;9.35;;;6.57;;
57635;SDS011;43465;50.728;4.160;2023-05-09T13:01:58;10.95;;;7.32;;
57635;SDS011;43465;50.728;4.160;2023-05-09T13:04:25;12.90;;;8.48;;
57635;SDS011;43465;50.728;4.160;2023-05-09T13:06:55;12.50;;;8.68;;
57635;SDS011;43465;50.728;4.160;2023-05-09T13:09:24;16.27;;;11.40;;
57635;SDS011;43465;50.728;4.160;2023-05-09T13:11:51;13.38;;;10.18;;
57635;SDS011;43465;50.728;4.160;2023-05-09T13:14:21;13.98;;;10.10;;
57635;SDS011;43465;50.728;4.160;2023-05-09T13:16:47;12.68;;;9.52;;
57635;SDS011;43465;50.728;4.160;2023-05-09T13:19:12;12.48;;;8.25;;
57635;SDS011;43465;50.728;4.160;2023-05-09T13:21:38;8.95;;;7.82;;
57635;SDS011;43465;50.728;4.160;2023-05-09T13:24:04;5.75;;;5.15;;
57635;SDS011;43465;50.728;4.160;2023-05-09T13:26:32;8.82;;;7.35;;
57635;SDS011;43465;50.728;4.160;2023-05-09T13:28:58;6.90;;;6.20;;
57635;SDS011;43465;50.728;4.160;2023-05-09T13:31:24;5.95;;;5.35;;
57635;SDS011;43465;50.728;4.160;2023-05-09T13:33:50;6.80;;;6.18;;
57635;SDS011;43465;50.728;4.160;2023-05-09T13:36:16;7.25;;;6.20;;
57635;SDS011;43465;50.728;4.160;2023-05-09T13:38:41;8.07;;;7.18;;
57635;SDS011;43465;50.728;4.160;2023-05-09T13:41:09;9.43;;;6.93;;
57635;SDS011;43465;50.728;4.160;2023-05-09T13:43:35;7.95;;;6.18;;
57635;SDS011;43465;50.728;4.160;2023-05-09T13:46:05;8.82;;;7.68;;
57635;SDS011;43465;50.728;4.160;2023-05-09T13:48:30;11.88;;;9.20;;
57635;SDS011;43465;50.728;4.160;2023-05-09T13:50:56;9.73;;;7.15;;
57635;SDS011;43465;50.728;4.160;2023-05-09T13:53:23;8.55;;;7.28;;
57635;SDS011;43465;50.728;4.160;2023-05-09T13:55:49;7.80;;;6.38;;
57635;SDS011;43465;50.728;4.160;2023-05-09T13:58:15;8.02;;;6.90;;
57635;SDS011;43465;50.728;4.160;2023-05-09T14:00:40;9.50;;;7.35;;
57635;SDS011;43465;50.728;4.160;2023-05-09T14:03:06;5.80;;;4.22;;
57635;SDS011;43465;50.728;4.160;2023-05-09T14:05:33;7.13;;;5.90;;
57635;SDS011;43465;50.728;4.160;2023-05-09T14:07:58;5.90;;;4.90;;
57635;SDS011;43465;50.728;4.160;2023-05-09T14:10:25;5.47;;;3.92;;
57635;SDS011;43465;50.728;4.160;2023-05-09T14:12:51;6.53;;;2.75;;
57635;SDS011;43465;50.728;4.160;2023-05-09T14:15:18;2.80;;;1.30;;
57635;SDS011;43465;50.728;4.160;2023-05-09T14:17:43;2.10;;;1.92;;
57635;SDS011;43465;50.728;4.160;2023-05-09T14:20:09;2.17;;;2.00;;
57635;SDS011;43465;50.728;4.160;2023-05-09T14:22:36;2.90;;;2.00;;
57635;SDS011;43465;50.728;4.160;2023-05-09T14:25:01;1.98;;;1.75;;
57635;SDS011;43465;50.728;4.160;2023-05-09T14:27:27;1.23;;;1.08;;
57635;SDS011;43465;50.728;4.160;2023-05-09T14:29:53;2.88;;;2.00;;
57635;SDS011;43465;50.728;4.160;2023-05-09T14:32:19;2.72;;;2.53;;
57635;SDS011;43465;50.728;4.160;2023-05-09T14:34:44;1.50;;;1.40;;
57635;SDS011;43465;50.728;4.160;2023-05-09T14:37:13;1.08;;;1.08;;
57635;SDS011;43465;50.728;4.160;2023-05-09T14:39:39;1.40;;;0.93;;
57635;SDS011;43465;50.728;4.160;2023-05-09T14:42:09;2.28;;;1.30;;
57635;SDS011;43465;50.728;4.160;2023-05-09T14:44:38;1.50;;;1.20;;
57635;SDS011;43465;50.728;4.160;2023-05-09T14:47:05;1.17;;;1.08;;
57635;SDS011;43465;50.728;4.160;2023-05-09T14:49:31;2.30;;;2.20;;
57635;SDS011;43465;50.728;4.160;2023-05-09T14:51:57;2.30;;;2.10;;
57635;SDS011;43465;50.728;4.160;2023-05-09T14:54:23;3.92;;;3.58;;
57635;SDS011;43465;50.728;4.160;2023-05-09T14:56:49;2.33;;;1.80;;
57635;SDS011;43465;50.728;4.160;2023-05-09T14:59:14;2.47;;;2.17;;
57635;SDS011;43465;50.728;4.160;2023-05-09T15:01:40;2.88;;;1.70;;
57635;SDS011;43465;50.728;4.160;2023-05-09T15:04:06;3.08;;;1.70;;